sensor_id;sensor_type;location;lat;lon;timestamp;P1;durP1;ratioP1;P2;durP2;ratioP2
58878;SDS011;44660;42.664;23.266;2022-12-24T00:01:07;70.05;;;31.55;;
58878;SDS011;44660;42.664;23.266;2022-12-24T00:03:33;61.83;;;27.90;;
58878;SDS011;44660;42.664;23.266;2022-12-24T00:06:03;62.05;;;28.33;;
58878;SDS011;44660;42.664;23.266;2022-12-24T00:08:30;49.05;;;24.05;;
58878;SDS011;44660;42.664;23.266;2022-12-24T00:10:55;59.90;;;27.35;;
58878;SDS011;44660;42.664;23.266;2022-12-24T00:13:21;60.10;;;27.65;;
58878;SDS011;44660;42.664;23.266;2022-12-24T00:15:46;59.35;;;28.20;;
58878;SDS011;44660;42.664;23.266;2022-12-24T00:18:12;59.58;;;27.77;;
58878;SDS011;44660;42.664;23.266;2022-12-24T00:20:38;57.40;;;26.80;;
58878;SDS011;44660;42.664;23.266;2022-12-24T00:23:03;55.22;;;26.00;;
58878;SDS011;44660;42.664;23.266;2022-12-24T00:25:28;51.55;;;25.17;;
58878;SDS011;44660;42.664;23.266;2022-12-24T00:27:54;51.97;;;24.30;;
58878;SDS011;44660;42.664;23.266;2022-12-24T00:30:19;47.97;;;23.05;;
58878;SDS011;44660;42.664;23.266;2022-12-24T00:32:45;48.80;;;24.02;;
58878;SDS011;44660;42.664;23.266;2022-12-24T00:35:11;51.28;;;22.45;;
58878;SDS011;44660;42.664;23.266;2022-12-24T00:37:36;44.30;;;21.10;;
58878;SDS011;44660;42.664;23.266;2022-12-24T00:40:02;47.40;;;22.77;;
58878;SDS011;44660;42.664;23.266;2022-12-24T00:42:28;43.20;;;20.80;;
58878;SDS011;44660;42.664;23.266;2022-12-24T00:44:53;38.47;;;20.13;;
58878;SDS011;44660;42.664;23.266;2022-12-24T00:47:18;36.08;;;18.83;;
58878;SDS011;44660;42.664;23.266;2022-12-24T00:49:44;36.78;;;18.77;;
58878;SDS011;44660;42.664;23.266;2022-12-24T00:52:09;39.10;;;19.98;;
58878;SDS011;44660;42.664;23.266;2022-12-24T00:54:35;39.63;;;20.67;;
58878;SDS011;44660;42.664;23.266;2022-12-24T00:57:00;43.60;;;20.80;;
58878;SDS011;44660;42.664;23.266;2022-12-24T00:59:26;42.28;;;20.92;;
58878;SDS011;44660;42.664;23.266;2022-12-24T01:01:51;36.60;;;18.98;;
58878;SDS011;44660;42.664;23.266;2022-12-24T01:04:17;33.78;;;17.52;;
58878;SDS011;44660;42.664;23.266;2022-12-24T01:07:01;33.38;;;17.17;;
58878;SDS011;44660;42.664;23.266;2022-12-24T01:09:26;36.03;;;17.90;;
58878;SDS011;44660;42.664;23.266;2022-12-24T01:11:52;32.47;;;15.93;;
58878;SDS011;44660;42.664;23.266;2022-12-24T01:14:17;36.20;;;16.80;;
58878;SDS011;44660;42.664;23.266;2022-12-24T01:16:43;32.30;;;16.92;;
58878;SDS011;44660;42.664;23.266;2022-12-24T01:19:08;37.20;;;16.88;;
58878;SDS011;44660;42.664;23.266;2022-12-24T01:21:34;35.08;;;17.23;;
58878;SDS011;44660;42.664;23.266;2022-12-24T01:24:00;32.90;;;17.58;;
58878;SDS011;44660;42.664;23.266;2022-12-24T01:26:25;38.60;;;17.85;;
58878;SDS011;44660;42.664;23.266;2022-12-24T01:28:51;34.15;;;17.73;;
58878;SDS011;44660;42.664;23.266;2022-12-24T01:31:17;31.55;;;17.50;;
58878;SDS011;44660;42.664;23.266;2022-12-24T01:33:43;31.10;;;17.00;;
58878;SDS011;44660;42.664;23.266;2022-12-24T01:36:10;29.10;;;15.30;;
58878;SDS011;44660;42.664;23.266;2022-12-24T01:38:37;29.95;;;16.00;;
58878;SDS011;44660;42.664;23.266;2022-12-24T01:41:03;30.75;;;16.45;;
58878;SDS011;44660;42.664;23.266;2022-12-24T01:43:48;29.55;;;15.35;;
58878;SDS011;44660;42.664;23.266;2022-12-24T01:46:24;28.95;;;15.15;;
58878;SDS011;44660;42.664;23.266;2022-12-24T01:48:57;28.95;;;15.30;;
58878;SDS011;44660;42.664;23.266;2022-12-24T01:54:20;27.83;;;14.52;;
58878;SDS011;44660;42.664;23.266;2022-12-24T01:56:59;31.60;;;14.95;;
58878;SDS011;44660;42.664;23.266;2022-12-24T01:59:28;33.88;;;15.93;;
58878;SDS011;44660;42.664;23.266;2022-12-24T02:01:54;36.22;;;16.50;;
58878;SDS011;44660;42.664;23.266;2022-12-24T02:04:25;30.63;;;15.60;;
58878;SDS011;44660;42.664;23.266;2022-12-24T02:07:02;31.98;;;15.80;;
58878;SDS011;44660;42.664;23.266;2022-12-24T02:09:28;34.13;;;15.30;;
58878;SDS011;44660;42.664;23.266;2022-12-24T02:11:53;31.30;;;15.98;;
58878;SDS011;44660;42.664;23.266;2022-12-24T02:14:20;31.25;;;16.77;;
58878;SDS011;44660;42.664;23.266;2022-12-24T02:22:06;42.85;;;19.60;;
58878;SDS011;44660;42.664;23.266;2022-12-24T02:32:56;36.85;;;18.25;;
58878;SDS011;44660;42.664;23.266;2022-12-24T02:38:29;39.60;;;19.17;;
58878;SDS011;44660;42.664;23.266;2022-12-24T02:41:18;35.58;;;16.98;;
58878;SDS011;44660;42.664;23.266;2022-12-24T02:43:47;35.97;;;17.63;;
58878;SDS011;44660;42.664;23.266;2022-12-24T02:46:17;36.22;;;18.15;;
58878;SDS011;44660;42.664;23.266;2022-12-24T02:48:46;33.90;;;17.17;;
58878;SDS011;44660;42.664;23.266;2022-12-24T02:51:13;33.38;;;16.35;;
58878;SDS011;44660;42.664;23.266;2022-12-24T02:53:39;30.23;;;16.30;;
58878;SDS011;44660;42.664;23.266;2022-12-24T03:01:50;34.60;;;16.02;;
58878;SDS011;44660;42.664;23.266;2022-12-24T03:09:40;35.45;;;18.73;;
58878;SDS011;44660;42.664;23.266;2022-12-24T03:12:19;30.30;;;15.63;;
58878;SDS011;44660;42.664;23.266;2022-12-24T03:14:48;27.15;;;14.85;;
58878;SDS011;44660;42.664;23.266;2022-12-24T03:17:16;26.30;;;15.43;;
58878;SDS011;44660;42.664;23.266;2022-12-24T03:19:43;30.08;;;16.10;;
58878;SDS011;44660;42.664;23.266;2022-12-24T03:22:09;30.25;;;15.52;;
58878;SDS011;44660;42.664;23.266;2022-12-24T03:24:36;34.63;;;16.92;;
58878;SDS011;44660;42.664;23.266;2022-12-24T03:27:03;31.65;;;16.38;;
58878;SDS011;44660;42.664;23.266;2022-12-24T03:29:30;29.25;;;15.70;;
58878;SDS011;44660;42.664;23.266;2022-12-24T03:32:00;27.02;;;14.13;;
58878;SDS011;44660;42.664;23.266;2022-12-24T03:34:28;30.73;;;15.65;;
58878;SDS011;44660;42.664;23.266;2022-12-24T03:36:54;29.75;;;14.93;;
58878;SDS011;44660;42.664;23.266;2022-12-24T03:39:20;29.90;;;15.32;;
58878;SDS011;44660;42.664;23.266;2022-12-24T03:41:46;29.17;;;14.88;;
58878;SDS011;44660;42.664;23.266;2022-12-24T03:44:11;26.38;;;13.63;;
58878;SDS011;44660;42.664;23.266;2022-12-24T03:46:37;30.80;;;15.18;;
58878;SDS011;44660;42.664;23.266;2022-12-24T03:49:03;28.40;;;14.32;;
58878;SDS011;44660;42.664;23.266;2022-12-24T03:51:28;27.52;;;14.70;;
58878;SDS011;44660;42.664;23.266;2022-12-24T03:53:54;28.58;;;14.80;;
58878;SDS011;44660;42.664;23.266;2022-12-24T03:56:21;36.95;;;18.95;;
58878;SDS011;44660;42.664;23.266;2022-12-24T03:58:48;37.17;;;19.30;;
58878;SDS011;44660;42.664;23.266;2022-12-24T04:01:14;41.83;;;20.83;;
58878;SDS011;44660;42.664;23.266;2022-12-24T04:03:40;31.33;;;16.75;;
58878;SDS011;44660;42.664;23.266;2022-12-24T04:06:11;30.20;;;15.57;;
58878;SDS011;44660;42.664;23.266;2022-12-24T04:08:39;30.30;;;15.32;;
58878;SDS011;44660;42.664;23.266;2022-12-24T04:11:05;30.42;;;16.27;;
58878;SDS011;44660;42.664;23.266;2022-12-24T04:13:35;32.85;;;16.85;;
58878;SDS011;44660;42.664;23.266;2022-12-24T04:16:05;32.03;;;15.60;;
58878;SDS011;44660;42.664;23.266;2022-12-24T04:18:33;29.88;;;15.90;;
58878;SDS011;44660;42.664;23.266;2022-12-24T04:20:59;33.35;;;15.98;;
58878;SDS011;44660;42.664;23.266;2022-12-24T04:23:24;33.28;;;16.42;;
58878;SDS011;44660;42.664;23.266;2022-12-24T04:25:50;39.03;;;18.05;;
58878;SDS011;44660;42.664;23.266;2022-12-24T04:28:16;33.55;;;17.63;;
58878;SDS011;44660;42.664;23.266;2022-12-24T04:30:42;32.40;;;17.23;;
58878;SDS011;44660;42.664;23.266;2022-12-24T04:33:08;34.33;;;17.30;;
58878;SDS011;44660;42.664;23.266;2022-12-24T04:35:37;29.70;;;15.75;;
58878;SDS011;44660;42.664;23.266;2022-12-24T04:38:06;30.60;;;16.08;;
58878;SDS011;44660;42.664;23.266;2022-12-24T04:40:32;30.58;;;15.70;;
58878;SDS011;44660;42.664;23.266;2022-12-24T04:42:57;31.40;;;16.00;;
58878;SDS011;44660;42.664;23.266;2022-12-24T04:45:23;28.92;;;14.95;;
58878;SDS011;44660;42.664;23.266;2022-12-24T04:47:48;30.98;;;15.35;;
58878;SDS011;44660;42.664;23.266;2022-12-24T04:50:14;33.65;;;16.23;;
58878;SDS011;44660;42.664;23.266;2022-12-24T04:52:39;35.97;;;18.65;;
58878;SDS011;44660;42.664;23.266;2022-12-24T04:55:05;34.60;;;17.85;;
58878;SDS011;44660;42.664;23.266;2022-12-24T04:57:31;39.70;;;18.92;;
58878;SDS011;44660;42.664;23.266;2022-12-24T04:59:57;37.83;;;17.65;;
58878;SDS011;44660;42.664;23.266;2022-12-24T05:02:23;36.88;;;18.73;;
58878;SDS011;44660;42.664;23.266;2022-12-24T05:04:49;33.03;;;17.50;;
58878;SDS011;44660;42.664;23.266;2022-12-24T05:07:14;36.65;;;19.42;;
58878;SDS011;44660;42.664;23.266;2022-12-24T05:09:40;33.17;;;17.90;;
58878;SDS011;44660;42.664;23.266;2022-12-24T05:12:06;38.40;;;19.83;;
58878;SDS011;44660;42.664;23.266;2022-12-24T05:14:32;35.78;;;19.10;;
58878;SDS011;44660;42.664;23.266;2022-12-24T05:16:57;36.75;;;19.60;;
58878;SDS011;44660;42.664;23.266;2022-12-24T05:19:23;35.17;;;19.08;;
58878;SDS011;44660;42.664;23.266;2022-12-24T05:21:48;39.00;;;19.77;;
58878;SDS011;44660;42.664;23.266;2022-12-24T05:24:33;41.78;;;20.38;;
58878;SDS011;44660;42.664;23.266;2022-12-24T05:27:17;38.10;;;19.58;;
58878;SDS011;44660;42.664;23.266;2022-12-24T05:29:43;38.72;;;20.05;;
58878;SDS011;44660;42.664;23.266;2022-12-24T05:32:08;38.45;;;19.38;;
58878;SDS011;44660;42.664;23.266;2022-12-24T05:34:34;36.05;;;19.58;;
58878;SDS011;44660;42.664;23.266;2022-12-24T05:36:59;34.92;;;20.33;;
58878;SDS011;44660;42.664;23.266;2022-12-24T05:39:25;40.42;;;19.75;;
58878;SDS011;44660;42.664;23.266;2022-12-24T05:41:50;37.35;;;20.02;;
58878;SDS011;44660;42.664;23.266;2022-12-24T05:44:15;38.75;;;20.48;;
58878;SDS011;44660;42.664;23.266;2022-12-24T05:46:41;40.03;;;20.33;;
58878;SDS011;44660;42.664;23.266;2022-12-24T05:49:07;42.38;;;20.88;;
58878;SDS011;44660;42.664;23.266;2022-12-24T05:51:33;44.75;;;22.17;;
58878;SDS011;44660;42.664;23.266;2022-12-24T05:53:59;45.63;;;22.60;;
58878;SDS011;44660;42.664;23.266;2022-12-24T05:56:24;44.72;;;23.08;;
58878;SDS011;44660;42.664;23.266;2022-12-24T05:58:50;37.67;;;20.98;;
58878;SDS011;44660;42.664;23.266;2022-12-24T06:01:17;39.47;;;20.83;;
58878;SDS011;44660;42.664;23.266;2022-12-24T06:03:44;42.47;;;18.27;;
58878;SDS011;44660;42.664;23.266;2022-12-24T06:06:11;35.72;;;18.35;;
58878;SDS011;44660;42.664;23.266;2022-12-24T06:08:39;34.15;;;19.27;;
58878;SDS011;44660;42.664;23.266;2022-12-24T06:11:06;39.25;;;20.92;;
58878;SDS011;44660;42.664;23.266;2022-12-24T06:13:34;44.72;;;21.88;;
58878;SDS011;44660;42.664;23.266;2022-12-24T06:16:00;40.55;;;21.98;;
58878;SDS011;44660;42.664;23.266;2022-12-24T06:18:28;47.45;;;23.70;;
58878;SDS011;44660;42.664;23.266;2022-12-24T06:20:55;45.17;;;22.77;;
58878;SDS011;44660;42.664;23.266;2022-12-24T06:23:21;42.80;;;22.00;;
58878;SDS011;44660;42.664;23.266;2022-12-24T06:25:48;40.03;;;20.80;;
58878;SDS011;44660;42.664;23.266;2022-12-24T06:28:14;39.17;;;21.30;;
58878;SDS011;44660;42.664;23.266;2022-12-24T06:30:40;41.35;;;22.40;;
58878;SDS011;44660;42.664;23.266;2022-12-24T06:33:05;39.92;;;21.85;;
58878;SDS011;44660;42.664;23.266;2022-12-24T06:35:31;41.67;;;22.20;;
58878;SDS011;44660;42.664;23.266;2022-12-24T06:37:57;45.97;;;22.40;;
58878;SDS011;44660;42.664;23.266;2022-12-24T06:40:24;46.10;;;23.73;;
58878;SDS011;44660;42.664;23.266;2022-12-24T06:42:50;44.58;;;25.40;;
58878;SDS011;44660;42.664;23.266;2022-12-24T06:45:15;51.15;;;26.63;;
58878;SDS011;44660;42.664;23.266;2022-12-24T06:47:41;46.92;;;25.88;;
58878;SDS011;44660;42.664;23.266;2022-12-24T06:50:07;45.50;;;26.40;;
58878;SDS011;44660;42.664;23.266;2022-12-24T06:52:33;50.47;;;27.05;;
58878;SDS011;44660;42.664;23.266;2022-12-24T06:54:58;51.70;;;26.75;;
58878;SDS011;44660;42.664;23.266;2022-12-24T06:57:24;51.22;;;27.48;;
58878;SDS011;44660;42.664;23.266;2022-12-24T06:59:49;55.30;;;28.17;;
58878;SDS011;44660;42.664;23.266;2022-12-24T07:02:15;54.15;;;27.48;;
58878;SDS011;44660;42.664;23.266;2022-12-24T07:04:40;59.85;;;28.30;;
58878;SDS011;44660;42.664;23.266;2022-12-24T07:07:05;50.75;;;26.63;;
58878;SDS011;44660;42.664;23.266;2022-12-24T07:09:31;56.17;;;27.70;;
58878;SDS011;44660;42.664;23.266;2022-12-24T07:11:56;56.53;;;28.90;;
58878;SDS011;44660;42.664;23.266;2022-12-24T07:14:22;59.85;;;28.75;;
58878;SDS011;44660;42.664;23.266;2022-12-24T07:16:47;53.88;;;27.83;;
58878;SDS011;44660;42.664;23.266;2022-12-24T07:19:14;56.92;;;29.30;;
58878;SDS011;44660;42.664;23.266;2022-12-24T07:21:39;52.63;;;27.42;;
58878;SDS011;44660;42.664;23.266;2022-12-24T07:24:05;49.40;;;25.90;;
58878;SDS011;44660;42.664;23.266;2022-12-24T07:26:31;49.00;;;26.35;;
58878;SDS011;44660;42.664;23.266;2022-12-24T07:28:56;52.47;;;26.52;;
58878;SDS011;44660;42.664;23.266;2022-12-24T07:31:22;51.70;;;26.48;;
58878;SDS011;44660;42.664;23.266;2022-12-24T07:33:47;47.10;;;26.45;;
58878;SDS011;44660;42.664;23.266;2022-12-24T07:36:14;48.05;;;26.67;;
58878;SDS011;44660;42.664;23.266;2022-12-24T07:38:43;53.97;;;28.52;;
58878;SDS011;44660;42.664;23.266;2022-12-24T07:41:09;52.65;;;27.98;;
58878;SDS011;44660;42.664;23.266;2022-12-24T07:43:35;49.70;;;26.98;;
58878;SDS011;44660;42.664;23.266;2022-12-24T07:46:00;48.63;;;25.38;;
58878;SDS011;44660;42.664;23.266;2022-12-24T07:48:27;48.28;;;25.85;;
58878;SDS011;44660;42.664;23.266;2022-12-24T07:50:53;49.83;;;25.73;;
58878;SDS011;44660;42.664;23.266;2022-12-24T07:53:19;47.47;;;25.23;;
58878;SDS011;44660;42.664;23.266;2022-12-24T07:55:44;44.53;;;25.23;;
58878;SDS011;44660;42.664;23.266;2022-12-24T07:58:09;41.10;;;23.50;;
58878;SDS011;44660;42.664;23.266;2022-12-24T08:00:35;42.95;;;22.85;;
58878;SDS011;44660;42.664;23.266;2022-12-24T08:03:00;40.05;;;23.35;;
58878;SDS011;44660;42.664;23.266;2022-12-24T08:05:26;36.08;;;23.25;;
58878;SDS011;44660;42.664;23.266;2022-12-24T08:07:52;40.97;;;22.98;;
58878;SDS011;44660;42.664;23.266;2022-12-24T08:10:18;39.78;;;22.10;;
58878;SDS011;44660;42.664;23.266;2022-12-24T08:12:43;37.47;;;22.08;;
58878;SDS011;44660;42.664;23.266;2022-12-24T08:15:10;38.92;;;22.35;;
58878;SDS011;44660;42.664;23.266;2022-12-24T08:17:36;42.50;;;22.80;;
58878;SDS011;44660;42.664;23.266;2022-12-24T08:20:02;39.97;;;22.25;;
58878;SDS011;44660;42.664;23.266;2022-12-24T08:22:28;43.03;;;24.63;;
58878;SDS011;44660;42.664;23.266;2022-12-24T08:24:55;40.08;;;23.13;;
58878;SDS011;44660;42.664;23.266;2022-12-24T08:27:20;41.47;;;23.05;;
58878;SDS011;44660;42.664;23.266;2022-12-24T08:29:46;39.33;;;23.00;;
58878;SDS011;44660;42.664;23.266;2022-12-24T08:32:11;36.13;;;22.27;;
58878;SDS011;44660;42.664;23.266;2022-12-24T08:34:37;42.78;;;24.23;;
58878;SDS011;44660;42.664;23.266;2022-12-24T08:37:02;44.38;;;25.63;;
58878;SDS011;44660;42.664;23.266;2022-12-24T08:39:28;42.03;;;23.80;;
58878;SDS011;44660;42.664;23.266;2022-12-24T08:41:54;35.60;;;20.65;;
58878;SDS011;44660;42.664;23.266;2022-12-24T08:44:20;35.72;;;21.90;;
58878;SDS011;44660;42.664;23.266;2022-12-24T08:46:45;39.88;;;21.77;;
58878;SDS011;44660;42.664;23.266;2022-12-24T08:49:11;38.45;;;21.35;;
58878;SDS011;44660;42.664;23.266;2022-12-24T08:51:36;41.38;;;21.70;;
58878;SDS011;44660;42.664;23.266;2022-12-24T08:54:02;39.42;;;21.85;;
58878;SDS011;44660;42.664;23.266;2022-12-24T08:56:27;43.60;;;24.98;;
58878;SDS011;44660;42.664;23.266;2022-12-24T08:58:53;45.65;;;26.85;;
58878;SDS011;44660;42.664;23.266;2022-12-24T09:01:18;48.88;;;29.25;;
58878;SDS011;44660;42.664;23.266;2022-12-24T09:03:45;50.95;;;30.92;;
58878;SDS011;44660;42.664;23.266;2022-12-24T09:06:11;53.63;;;30.75;;
58878;SDS011;44660;42.664;23.266;2022-12-24T09:08:37;51.60;;;29.98;;
58878;SDS011;44660;42.664;23.266;2022-12-24T09:11:07;53.67;;;27.92;;
58878;SDS011;44660;42.664;23.266;2022-12-24T09:13:38;51.50;;;29.20;;
58878;SDS011;44660;42.664;23.266;2022-12-24T09:16:04;49.22;;;28.15;;
58878;SDS011;44660;42.664;23.266;2022-12-24T09:18:30;57.97;;;30.52;;
58878;SDS011;44660;42.664;23.266;2022-12-24T09:20:57;46.17;;;27.80;;
58878;SDS011;44660;42.664;23.266;2022-12-24T09:23:23;52.95;;;29.88;;
58878;SDS011;44660;42.664;23.266;2022-12-24T09:25:49;51.13;;;29.40;;
58878;SDS011;44660;42.664;23.266;2022-12-24T09:28:14;52.42;;;28.88;;
58878;SDS011;44660;42.664;23.266;2022-12-24T09:30:40;52.60;;;29.27;;
58878;SDS011;44660;42.664;23.266;2022-12-24T09:33:05;51.42;;;28.77;;
58878;SDS011;44660;42.664;23.266;2022-12-24T09:35:31;49.50;;;29.63;;
58878;SDS011;44660;42.664;23.266;2022-12-24T09:37:56;52.53;;;29.80;;
58878;SDS011;44660;42.664;23.266;2022-12-24T09:40:31;53.85;;;30.23;;
58878;SDS011;44660;42.664;23.266;2022-12-24T09:43:01;56.55;;;31.77;;
58878;SDS011;44660;42.664;23.266;2022-12-24T09:45:51;55.28;;;30.08;;
58878;SDS011;44660;42.664;23.266;2022-12-24T09:48:27;58.13;;;30.83;;
58878;SDS011;44660;42.664;23.266;2022-12-24T09:56:03;48.67;;;28.23;;
58878;SDS011;44660;42.664;23.266;2022-12-24T09:58:55;52.70;;;29.25;;
58878;SDS011;44660;42.664;23.266;2022-12-24T10:01:22;50.75;;;28.73;;
58878;SDS011;44660;42.664;23.266;2022-12-24T10:03:48;52.67;;;30.20;;
58878;SDS011;44660;42.664;23.266;2022-12-24T10:06:15;46.22;;;28.75;;
58878;SDS011;44660;42.664;23.266;2022-12-24T10:14:25;58.33;;;32.17;;
58878;SDS011;44660;42.664;23.266;2022-12-24T10:17:05;57.50;;;32.67;;
58878;SDS011;44660;42.664;23.266;2022-12-24T10:27:47;60.15;;;33.15;;
58878;SDS011;44660;42.664;23.266;2022-12-24T10:30:13;71.25;;;38.45;;
58878;SDS011;44660;42.664;23.266;2022-12-24T10:32:40;86.85;;;45.67;;
58878;SDS011;44660;42.664;23.266;2022-12-24T10:37:38;108.45;;;55.50;;
58878;SDS011;44660;42.664;23.266;2022-12-24T10:40:14;103.95;;;57.03;;
58878;SDS011;44660;42.664;23.266;2022-12-24T10:42:46;118.93;;;57.67;;
58878;SDS011;44660;42.664;23.266;2022-12-24T10:45:20;105.35;;;60.20;;
58878;SDS011;44660;42.664;23.266;2022-12-24T10:47:48;107.72;;;58.72;;
58878;SDS011;44660;42.664;23.266;2022-12-24T10:50:23;111.70;;;59.10;;
58878;SDS011;44660;42.664;23.266;2022-12-24T10:52:58;111.65;;;60.03;;
58878;SDS011;44660;42.664;23.266;2022-12-24T10:55:38;118.40;;;59.53;;
58878;SDS011;44660;42.664;23.266;2022-12-24T10:58:04;112.88;;;59.28;;
58878;SDS011;44660;42.664;23.266;2022-12-24T11:00:37;110.20;;;58.95;;
58878;SDS011;44660;42.664;23.266;2022-12-24T11:05:36;109.20;;;58.78;;
58878;SDS011;44660;42.664;23.266;2022-12-24T11:08:04;110.80;;;59.15;;
58878;SDS011;44660;42.664;23.266;2022-12-24T11:10:53;102.03;;;56.63;;
58878;SDS011;44660;42.664;23.266;2022-12-24T11:13:30;108.78;;;56.97;;
58878;SDS011;44660;42.664;23.266;2022-12-24T11:16:16;106.03;;;57.22;;
58878;SDS011;44660;42.664;23.266;2022-12-24T11:18:52;113.13;;;57.80;;
58878;SDS011;44660;42.664;23.266;2022-12-24T11:21:20;114.68;;;59.97;;
58878;SDS011;44660;42.664;23.266;2022-12-24T11:23:58;108.85;;;57.25;;
58878;SDS011;44660;42.664;23.266;2022-12-24T11:26:29;103.22;;;53.88;;
58878;SDS011;44660;42.664;23.266;2022-12-24T11:29:05;102.65;;;56.97;;
58878;SDS011;44660;42.664;23.266;2022-12-24T11:32:23;109.85;;;57.83;;
58878;SDS011;44660;42.664;23.266;2022-12-24T11:34:46;103.82;;;55.72;;
58878;SDS011;44660;42.664;23.266;2022-12-24T11:37:21;105.22;;;56.50;;
58878;SDS011;44660;42.664;23.266;2022-12-24T11:39:49;99.60;;;55.17;;
58878;SDS011;44660;42.664;23.266;2022-12-24T11:42:21;97.45;;;55.40;;
58878;SDS011;44660;42.664;23.266;2022-12-24T11:44:50;89.53;;;50.38;;
58878;SDS011;44660;42.664;23.266;2022-12-24T11:47:15;97.15;;;51.13;;
58878;SDS011;44660;42.664;23.266;2022-12-24T11:49:41;83.88;;;47.28;;
58878;SDS011;44660;42.664;23.266;2022-12-24T11:54:51;89.40;;;50.17;;
58878;SDS011;44660;42.664;23.266;2022-12-24T11:57:20;92.28;;;49.33;;
58878;SDS011;44660;42.664;23.266;2022-12-24T11:59:49;94.83;;;54.80;;
58878;SDS011;44660;42.664;23.266;2022-12-24T12:02:24;92.55;;;51.58;;
58878;SDS011;44660;42.664;23.266;2022-12-24T12:04:56;97.75;;;54.13;;
58878;SDS011;44660;42.664;23.266;2022-12-24T12:07:29;95.13;;;52.17;;
58878;SDS011;44660;42.664;23.266;2022-12-24T12:10:05;96.90;;;53.55;;
58878;SDS011;44660;42.664;23.266;2022-12-24T12:12:40;93.85;;;53.83;;
58878;SDS011;44660;42.664;23.266;2022-12-24T12:15:11;103.57;;;54.70;;
58878;SDS011;44660;42.664;23.266;2022-12-24T12:17:47;95.95;;;54.45;;
58878;SDS011;44660;42.664;23.266;2022-12-24T12:20:25;102.25;;;55.88;;
58878;SDS011;44660;42.664;23.266;2022-12-24T12:25:33;97.32;;;56.60;;
58878;SDS011;44660;42.664;23.266;2022-12-24T12:28:14;96.55;;;55.30;;
58878;SDS011;44660;42.664;23.266;2022-12-24T12:31:01;96.80;;;54.40;;
58878;SDS011;44660;42.664;23.266;2022-12-24T12:36:17;97.35;;;52.80;;
58878;SDS011;44660;42.664;23.266;2022-12-24T12:38:47;92.25;;;52.88;;
58878;SDS011;44660;42.664;23.266;2022-12-24T12:50:11;105.57;;;57.20;;
58878;SDS011;44660;42.664;23.266;2022-12-24T12:55:31;113.88;;;61.63;;
58878;SDS011;44660;42.664;23.266;2022-12-24T12:58:38;112.95;;;61.90;;
58878;SDS011;44660;42.664;23.266;2022-12-24T13:03:54;114.35;;;61.30;;
58878;SDS011;44660;42.664;23.266;2022-12-24T13:06:50;102.93;;;57.20;;
58878;SDS011;44660;42.664;23.266;2022-12-24T13:12:03;100.38;;;52.80;;
58878;SDS011;44660;42.664;23.266;2022-12-24T13:20:32;110.20;;;61.30;;
58878;SDS011;44660;42.664;23.266;2022-12-24T13:23:12;99.45;;;54.42;;
58878;SDS011;44660;42.664;23.266;2022-12-24T13:25:42;100.10;;;58.58;;
58878;SDS011;44660;42.664;23.266;2022-12-24T13:30:44;98.15;;;52.75;;
58878;SDS011;44660;42.664;23.266;2022-12-24T13:33:11;94.20;;;50.88;;
58878;SDS011;44660;42.664;23.266;2022-12-24T13:36:10;92.57;;;47.45;;
58878;SDS011;44660;42.664;23.266;2022-12-24T13:49:26;70.35;;;39.50;;
58878;SDS011;44660;42.664;23.266;2022-12-24T13:54:42;89.25;;;46.45;;
58878;SDS011;44660;42.664;23.266;2022-12-24T14:02:47;81.85;;;44.70;;
58878;SDS011;44660;42.664;23.266;2022-12-24T14:08:01;86.35;;;48.35;;
58878;SDS011;44660;42.664;23.266;2022-12-24T14:10:36;95.80;;;51.50;;
58878;SDS011;44660;42.664;23.266;2022-12-24T14:13:04;103.93;;;54.03;;
58878;SDS011;44660;42.664;23.266;2022-12-24T14:15:43;95.78;;;53.05;;
58878;SDS011;44660;42.664;23.266;2022-12-24T14:18:21;99.57;;;54.47;;
58878;SDS011;44660;42.664;23.266;2022-12-24T14:20:52;121.18;;;59.55;;
58878;SDS011;44660;42.664;23.266;2022-12-24T14:23:29;103.30;;;58.58;;
58878;SDS011;44660;42.664;23.266;2022-12-24T14:26:00;96.95;;;53.50;;
58878;SDS011;44660;42.664;23.266;2022-12-24T14:28:31;89.53;;;47.28;;
58878;SDS011;44660;42.664;23.266;2022-12-24T14:31:03;88.32;;;46.55;;
58878;SDS011;44660;42.664;23.266;2022-12-24T14:33:30;78.85;;;41.63;;
58878;SDS011;44660;42.664;23.266;2022-12-24T14:35:57;55.50;;;31.63;;
58878;SDS011;44660;42.664;23.266;2022-12-24T14:38:24;34.75;;;19.10;;
58878;SDS011;44660;42.664;23.266;2022-12-24T14:43:22;25.50;;;14.85;;
58878;SDS011;44660;42.664;23.266;2022-12-24T14:56:29;21.70;;;10.75;;
58878;SDS011;44660;42.664;23.266;2022-12-24T14:58:55;28.60;;;14.63;;
58878;SDS011;44660;42.664;23.266;2022-12-24T15:06:36;37.50;;;20.20;;
58878;SDS011;44660;42.664;23.266;2022-12-24T15:11:38;44.35;;;23.55;;
58878;SDS011;44660;42.664;23.266;2022-12-24T15:14:08;45.90;;;24.08;;
58878;SDS011;44660;42.664;23.266;2022-12-24T15:16:35;45.53;;;24.13;;
58878;SDS011;44660;42.664;23.266;2022-12-24T15:22:01;46.65;;;22.90;;
58878;SDS011;44660;42.664;23.266;2022-12-24T15:24:32;40.30;;;22.58;;
58878;SDS011;44660;42.664;23.266;2022-12-24T15:27:00;37.55;;;21.70;;
58878;SDS011;44660;42.664;23.266;2022-12-24T15:29:38;32.10;;;18.85;;
58878;SDS011;44660;42.664;23.266;2022-12-24T15:32:09;31.33;;;17.98;;
58878;SDS011;44660;42.664;23.266;2022-12-24T15:34:41;30.33;;;16.05;;
58878;SDS011;44660;42.664;23.266;2022-12-24T15:39:51;43.92;;;23.83;;
58878;SDS011;44660;42.664;23.266;2022-12-24T15:42:19;37.20;;;18.98;;
58878;SDS011;44660;42.664;23.266;2022-12-24T15:47:59;32.42;;;17.73;;
58878;SDS011;44660;42.664;23.266;2022-12-24T15:50:32;31.38;;;16.25;;
58878;SDS011;44660;42.664;23.266;2022-12-24T15:55:33;33.47;;;17.77;;
58878;SDS011;44660;42.664;23.266;2022-12-24T15:58:12;34.72;;;18.77;;
58878;SDS011;44660;42.664;23.266;2022-12-24T16:03:30;25.23;;;15.30;;
58878;SDS011;44660;42.664;23.266;2022-12-24T16:05:58;30.65;;;18.55;;
58878;SDS011;44660;42.664;23.266;2022-12-24T16:08:42;36.38;;;22.33;;
58878;SDS011;44660;42.664;23.266;2022-12-24T16:13:37;35.38;;;20.20;;
58878;SDS011;44660;42.664;23.266;2022-12-24T16:16:07;31.92;;;17.10;;
58878;SDS011;44660;42.664;23.266;2022-12-24T16:18:36;30.65;;;17.45;;
58878;SDS011;44660;42.664;23.266;2022-12-24T16:21:09;31.95;;;17.40;;
58878;SDS011;44660;42.664;23.266;2022-12-24T16:23:45;27.42;;;15.88;;
58878;SDS011;44660;42.664;23.266;2022-12-24T16:26:12;22.73;;;13.07;;
58878;SDS011;44660;42.664;23.266;2022-12-24T16:28:38;24.38;;;11.52;;
58878;SDS011;44660;42.664;23.266;2022-12-24T16:31:04;20.20;;;12.85;;
58878;SDS011;44660;42.664;23.266;2022-12-24T16:33:29;22.13;;;13.68;;
58878;SDS011;44660;42.664;23.266;2022-12-24T16:35:55;28.98;;;16.33;;
58878;SDS011;44660;42.664;23.266;2022-12-24T16:38:21;29.15;;;16.35;;
58878;SDS011;44660;42.664;23.266;2022-12-24T16:40:47;30.05;;;16.13;;
58878;SDS011;44660;42.664;23.266;2022-12-24T16:43:13;29.00;;;15.20;;
58878;SDS011;44660;42.664;23.266;2022-12-24T16:45:58;23.17;;;13.05;;